Decoded Metar for KBLU (EMIGRANT GAP in CA, USA) (IATA:BLU) | Meteo·Mobile Aviation Weather
aviador You're here:

KBLU Decoded Metar

EMIGRANT GAP in CA, USA
Report Time2018-08-18 04:52:00
UTC Time2018-08-18 05:08:00
Flight Rules vfr VFR
Wind360° at 03 kt
W.Decomp.*RWY 33: 2.9 kt HW 0.7 kt RCW
Visibility9999 m
Phenomena:N/A
Clouds:N/A
Expected CloudBase > 5,200 ft AGL from Temp-Dew spread
CeilingNone
Temp21°C (ISA +16)
Dew Point08°C (43% RH)
AAT19.4°C
QNH1028 hPa
Density Alt6,831 ft
Elevation5,279 ft
Report Wrong Elevation
Raw Report
KBLU 180452Z AUTO 36003KT 10SM CLR 21/08 A3035 RMK AO2 SLP173
T02060078=

Extra information for KBLU:More info

Metar Taf Metar & Taf Last 4 Metars F.Rules Stats Wind Profile Meteogram Temp Stats Airport Information Weather charts Add Link Nearby VenuesMetar ALERT Operation Metar Decoded Social comments

AIRNAV info for KBLU